createdAt,value
2023-02-11T13:55:08.760Z,100402.19
2023-02-11T13:57:41.305Z,100407.45
2023-02-11T14:00:42.895Z,100406.02
2023-02-11T14:03:50.831Z,100411.89
2023-02-11T14:06:42.421Z,100408.97
2023-02-11T14:09:19.550Z,100417.44
2023-02-11T14:12:13.589Z,100420.91
2023-02-11T14:15:03.815Z,100423.39
2023-02-11T14:17:36.038Z,100419.59
2023-02-11T14:20:26.621Z,100427.79
2023-02-11T14:23:16.681Z,100433.25
2023-02-11T14:26:02.089Z,100444.27
2023-02-11T14:28:35.875Z,100452.30
2023-02-11T14:31:13.692Z,100454.56
2023-02-11T14:33:57.147Z,100457.44
2023-02-11T14:36:40.294Z,100460.02
2023-02-11T14:39:32.753Z,100459.08
2023-02-11T14:42:03.760Z,100469.29
2023-02-11T14:44:34.836Z,100468.57
2023-02-11T14:47:06.442Z,100475.52
2023-02-11T14:49:39.417Z,100472.32
2023-02-11T14:52:32.401Z,100470.78
2023-02-11T14:55:30.573Z,100474.95
2023-02-11T14:58:14.270Z,100479.89
2023-02-11T15:01:02.941Z,100483.23
2023-02-11T15:03:41.116Z,100489.64
2023-02-11T15:06:34.934Z,100489.09
2023-02-11T15:09:09.045Z,100491.93
2023-02-11T15:11:42.344Z,100505.09
2023-02-11T15:14:16.166Z,100513.73
2023-02-11T15:16:48.979Z,100516.14
2023-02-11T15:19:23.181Z,100524.26
2023-02-11T15:21:56.325Z,100525.63
2023-02-11T15:24:34.517Z,100531.33
2023-02-11T15:27:29.186Z,100533.05
2023-02-11T15:30:00.142Z,100538.31
2023-02-11T15:32:33.888Z,100541.33
2023-02-11T15:35:04.728Z,100546.64
2023-02-11T15:37:34.877Z,100546.33
2023-02-11T15:40:12.581Z,100553.33
2023-02-11T15:42:58.620Z,100555.13
2023-02-11T15:45:31.858Z,100560.89
2023-02-11T15:48:27.648Z,100569.85
2023-02-11T15:51:03.094Z,100577.05
2023-02-11T15:53:34.419Z,100584.33
2023-02-11T15:56:09.283Z,100588.89
2023-02-11T15:58:41.333Z,100599.88
2023-02-11T16:01:15.576Z,100596.23
2023-02-11T16:03:51.667Z,100600.27
2023-02-11T16:06:28.351Z,100602.91
2023-02-11T16:09:00.517Z,100610.98
2023-02-11T16:11:54.657Z,100616.92
2023-02-11T16:14:31.872Z,100614.88
2023-02-11T16:17:24.478Z,100615.39
2023-02-11T16:20:00.208Z,100617.22
2023-02-11T16:22:39.066Z,100619.65
2023-02-11T16:25:19.268Z,100636.29
2023-02-11T16:27:52.774Z,100643.73
2023-02-11T16:30:36.064Z,100646.41
2023-02-11T16:33:09.554Z,100651.06
2023-02-11T16:35:41.355Z,100657.79
2023-02-11T16:38:16.904Z,100663.64
2023-02-11T16:40:51.014Z,100663.98
2023-02-11T16:43:28.662Z,100672.34
2023-02-11T16:46:00.883Z,100664.24
2023-02-11T16:48:34.688Z,100674.17
2023-02-11T16:51:10.248Z,100681.00
2023-02-11T16:53:43.070Z,100686.20
2023-02-11T16:56:18.056Z,100688.38
2023-02-11T16:58:50.208Z,100695.98
2023-02-11T17:01:24.704Z,100703.26
2023-02-11T17:03:56.520Z,100710.43
2023-02-11T17:06:28.241Z,100709.90
2023-02-11T17:09:03.924Z,100713.82
2023-02-11T17:11:34.858Z,100722.48
2023-02-11T17:14:05.688Z,100732.62
2023-02-11T17:16:39.058Z,100732.34
2023-02-11T17:19:13.494Z,100742.39
2023-02-11T17:21:45.541Z,100743.70
2023-02-11T17:24:16.056Z,100745.62
2023-02-11T17:26:49.269Z,100742.02
2023-02-11T17:29:23.753Z,100752.73
2023-02-11T17:32:00.641Z,100759.19
2023-02-11T17:34:35.254Z,100762.59
2023-02-11T17:37:14.113Z,100763.84
2023-02-11T17:39:45.358Z,100768.98
2023-02-11T17:42:20.489Z,100778.99
2023-02-11T17:44:53.400Z,100781.83
2023-02-11T17:47:27.689Z,100786.85
2023-02-11T17:49:59.538Z,100790.90
2023-02-11T17:52:34.268Z,100799.25
2023-02-11T17:55:07.311Z,100808.61
2023-02-11T17:57:38.670Z,100808.43
2023-02-11T18:00:10.469Z,100814.33
2023-02-11T18:02:43.760Z,100815.37
2023-02-11T18:05:16.438Z,100817.27
2023-02-11T18:07:53.768Z,100827.88
2023-02-11T18:10:25.350Z,100830.91
2023-02-11T18:13:03.615Z,100837.19
2023-02-11T18:15:36.230Z,100845.10
2023-02-11T18:18:08.319Z,100849.26
2023-02-11T18:20:46.795Z,100853.14
2023-02-11T18:23:18.129Z,100859.01
2023-02-11T18:25:51.261Z,100862.64
2023-02-11T18:28:24.622Z,100865.19
2023-02-11T18:30:59.568Z,100869.73
2023-02-11T18:33:32.562Z,100879.55
2023-02-11T18:36:12.862Z,100880.73
2023-02-11T18:38:47.115Z,100887.23
2023-02-11T18:41:22.526Z,100897.77
2023-02-11T18:43:55.793Z,100903.91
2023-02-11T18:46:25.813Z,100908.34
2023-02-11T18:48:59.158Z,100913.88
2023-02-11T18:51:54.281Z,100914.36
2023-02-11T18:54:26.642Z,100925.73
2023-02-11T18:57:03.456Z,100932.75
2023-02-11T18:59:34.983Z,100941.92
2023-02-11T19:02:16.395Z,100946.05
2023-02-11T19:04:50.514Z,100946.02
2023-02-11T19:07:25.134Z,100949.10
2023-02-11T19:10:18.014Z,100956.06
2023-02-11T19:12:57.802Z,100963.70
2023-02-11T19:15:32.461Z,100971.57
2023-02-11T19:18:06.618Z,100985.05
2023-02-11T19:20:43.844Z,100991.67
2023-02-11T19:23:15.994Z,101007.15
2023-02-11T19:25:48.299Z,101017.23
2023-02-11T19:28:19.841Z,101021.39
2023-02-11T19:30:53.786Z,101024.95
2023-02-11T19:33:28.284Z,101029.14
2023-02-11T19:36:08.310Z,101040.83
2023-02-11T19:38:42.954Z,101055.66
2023-02-11T19:41:13.791Z,101069.21
2023-02-11T19:43:59.906Z,101067.19
2023-02-11T19:46:32.344Z,101071.81
2023-02-11T19:49:09.196Z,101069.21
2023-02-11T19:51:42.057Z,101076.25
2023-02-11T19:54:16.293Z,101091.41
2023-02-11T19:56:47.034Z,101102.39
2023-02-11T19:59:22.533Z,101108.52
2023-02-11T20:01:54.706Z,101116.05
2023-02-11T20:04:28.635Z,101124.03
2023-02-11T20:07:03.902Z,101133.61
2023-02-11T20:09:36.281Z,101143.48
2023-02-11T20:12:08.128Z,101153.13
2023-02-11T20:14:39.085Z,101163.48
2023-02-11T20:17:13.301Z,101169.19
2023-02-11T20:19:45.872Z,101174.78
2023-02-11T20:22:21.843Z,101180.44
2023-02-11T20:24:52.830Z,101190.18
2023-02-11T20:27:29.431Z,101201.00
2023-02-11T20:30:00.857Z,101204.15
2023-02-11T20:32:39.281Z,101208.69
2023-02-11T20:35:13.190Z,101216.71
2023-02-11T20:37:46.462Z,101229.31
2023-02-11T20:40:19.266Z,101238.41
2023-02-11T20:42:58.677Z,101243.61
2023-02-11T20:45:31.018Z,101247.05
2023-02-11T20:48:07.389Z,101246.79
2023-02-11T20:50:42.426Z,101251.91
2023-02-11T20:53:15.070Z,101254.03
2023-02-11T20:55:49.493Z,101253.61
2023-02-11T20:58:21.872Z,101260.19
2023-02-11T21:01:01.537Z,101268.60
2023-02-11T21:03:36.137Z,101279.92
2023-02-11T21:06:11.829Z,101284.94
2023-02-11T21:08:42.696Z,101292.52
2023-02-11T21:11:17.481Z,101294.90
2023-02-11T21:13:49.452Z,101297.16
2023-02-11T21:16:22.601Z,101295.36
2023-02-11T21:18:55.864Z,101301.61
2023-02-11T21:21:28.785Z,101311.38
2023-02-11T21:24:02.365Z,101316.98
2023-02-11T21:26:35.585Z,101321.44
2023-02-11T21:29:10.695Z,101325.04
2023-02-11T21:35:18.324Z,101341.02
2023-02-11T21:37:50.126Z,101338.16
2023-02-11T21:40:27.715Z,101339.16
2023-02-11T21:42:58.488Z,101344.05
2023-02-11T21:45:31.444Z,101348.58
2023-02-11T21:48:02.338Z,101350.95
2023-02-11T21:50:35.629Z,101347.44
2023-02-11T21:53:07.160Z,101360.25
2023-02-11T21:55:39.194Z,101366.69
2023-02-11T21:58:10.324Z,101374.15
2023-02-11T22:00:41.212Z,101375.80
2023-02-11T22:03:11.308Z,101379.54
2023-02-11T22:05:41.962Z,101379.15
2023-02-11T22:08:12.244Z,101380.86
2023-02-11T22:10:41.571Z,101388.67
2023-02-11T22:13:12.495Z,101396.84
2023-02-11T22:15:42.046Z,101403.79
2023-02-11T22:18:14.044Z,101408.55
2023-02-11T22:20:45.230Z,101417.46
2023-02-11T22:23:15.090Z,101426.38
2023-02-11T22:25:46.814Z,101425.83
2023-02-11T22:28:17.808Z,101427.29
2023-02-11T22:30:46.847Z,101434.70
2023-02-11T22:33:17.773Z,101440.69
2023-02-11T22:35:49.114Z,101441.59
2023-02-11T22:38:20.777Z,101445.23
2023-02-11T22:40:52.394Z,101450.29
2023-02-11T22:43:26.850Z,101456.84
2023-02-11T22:46:01.970Z,101464.17
2023-02-11T22:48:31.826Z,101466.80
2023-02-11T22:51:08.054Z,101470.83
2023-02-11T22:53:37.500Z,101481.21
2023-02-11T22:56:09.565Z,101487.20
2023-02-11T22:58:39.269Z,101487.91
2023-02-11T23:01:11.101Z,101492.90
2023-02-11T23:03:40.696Z,101497.03
2023-02-11T23:06:12.526Z,101495.29
2023-02-11T23:08:43.323Z,101491.95
2023-02-11T23:11:16.072Z,101491.83
2023-02-11T23:13:45.818Z,101498.06
2023-02-11T23:16:25.935Z,101492.35
2023-02-11T23:18:55.795Z,101496.02
2023-02-11T23:21:26.372Z,101498.70
2023-02-11T23:23:57.392Z,101496.21
2023-02-11T23:26:46.196Z,101495.23
2023-02-11T23:29:18.267Z,101501.20
2023-02-11T23:31:47.855Z,101495.47
2023-02-11T23:34:20.645Z,101498.11
2023-02-11T23:36:50.094Z,101500.44
2023-02-11T23:39:23.864Z,101504.62
2023-02-11T23:41:59.263Z,101511.48
2023-02-11T23:44:29.426Z,101511.93
2023-02-11T23:47:00.445Z,101518.73
2023-02-11T23:49:30.073Z,101519.64
2023-02-11T23:52:00.608Z,101526.03
2023-02-11T23:54:32.392Z,101533.30
2023-02-11T23:57:05.171Z,101540.16
2023-02-11T23:59:35.872Z,101545.24
